sensor_id;sensor_type;location;lat;lon;timestamp;temperature;humidity
72277;SHT30;61204;49.980;8.358;2023-03-01T00:02:01;-0.36;72.05
72277;SHT30;61204;49.980;8.358;2023-03-01T00:04:29;-0.42;72.16
72277;SHT30;61204;49.980;8.358;2023-03-01T00:06:55;-0.36;72.16
72277;SHT30;61204;49.980;8.358;2023-03-01T00:09:21;-0.37;72.20
72277;SHT30;61204;49.980;8.358;2023-03-01T00:11:49;-0.32;72.00
72277;SHT30;61204;49.980;8.358;2023-03-01T00:14:15;-0.33;72.11
72277;SHT30;61204;49.980;8.358;2023-03-01T00:16:47;-0.34;72.12
72277;SHT30;61204;49.980;8.358;2023-03-01T00:19:16;-0.37;71.89
72277;SHT30;61204;49.980;8.358;2023-03-01T00:21:43;-0.34;72.06
72277;SHT30;61204;49.980;8.358;2023-03-01T00:24:12;-0.37;72.06
72277;SHT30;61204;49.980;8.358;2023-03-01T00:26:37;-0.39;72.29
72277;SHT30;61204;49.980;8.358;2023-03-01T00:29:03;-0.36;72.03
72277;SHT30;61204;49.980;8.358;2023-03-01T00:31:32;-0.33;72.05
72277;SHT30;61204;49.980;8.358;2023-03-01T00:34:01;-0.34;71.98
72277;SHT30;61204;49.980;8.358;2023-03-01T00:36:31;-0.37;72.20
72277;SHT30;61204;49.980;8.358;2023-03-01T00:38:58;-0.37;72.37
72277;SHT30;61204;49.980;8.358;2023-03-01T00:41:23;-0.46;72.46
72277;SHT30;61204;49.980;8.358;2023-03-01T00:43:52;-0.59;72.95
72277;SHT30;61204;49.980;8.358;2023-03-01T00:46:20;-0.56;73.09
72277;SHT30;61204;49.980;8.358;2023-03-01T00:48:49;-0.48;72.77
72277;SHT30;61204;49.980;8.358;2023-03-01T00:51:18;-0.48;72.61
72277;SHT30;61204;49.980;8.358;2023-03-01T00:53:46;-0.48;72.60
72277;SHT30;61204;49.980;8.358;2023-03-01T00:56:13;-0.56;73.00
72277;SHT30;61204;49.980;8.358;2023-03-01T00:58:40;-0.61;73.14
72277;SHT30;61204;49.980;8.358;2023-03-01T01:01:10;-0.63;73.22
72277;SHT30;61204;49.980;8.358;2023-03-01T01:03:53;-0.66;73.28
72277;SHT30;61204;49.980;8.358;2023-03-01T01:06:35;-0.59;73.26
72277;SHT30;61204;49.980;8.358;2023-03-01T01:09:11;-0.67;73.23
72277;SHT30;61204;49.980;8.358;2023-03-01T01:11:48;-0.66;73.27
72277;SHT30;61204;49.980;8.358;2023-03-01T01:14:16;-0.60;73.61
72277;SHT30;61204;49.980;8.358;2023-03-01T01:16:42;-0.54;73.06
72277;SHT30;61204;49.980;8.358;2023-03-01T01:19:09;-0.60;73.10
72277;SHT30;61204;49.980;8.358;2023-03-01T01:21:36;-0.60;73.22
72277;SHT30;61204;49.980;8.358;2023-03-01T01:24:03;-0.61;73.28
72277;SHT30;61204;49.980;8.358;2023-03-01T01:26:33;-0.64;73.46
72277;SHT30;61204;49.980;8.358;2023-03-01T01:29:01;-0.68;73.36
72277;SHT30;61204;49.980;8.358;2023-03-01T01:31:32;-0.70;73.52
72277;SHT30;61204;49.980;8.358;2023-03-01T01:34:01;-0.66;73.40
72277;SHT30;61204;49.980;8.358;2023-03-01T01:36:29;-0.70;73.55
72277;SHT30;61204;49.980;8.358;2023-03-01T01:38:55;-0.67;73.59
72277;SHT30;61204;49.980;8.358;2023-03-01T01:41:22;-0.68;73.67
72277;SHT30;61204;49.980;8.358;2023-03-01T01:44:26;-0.63;73.56
72277;SHT30;61204;49.980;8.358;2023-03-01T01:46:56;-0.56;73.10
72277;SHT30;61204;49.980;8.358;2023-03-01T01:49:43;-0.63;73.42
72277;SHT30;61204;49.980;8.358;2023-03-01T01:52:18;-0.68;73.65
72277;SHT30;61204;49.980;8.358;2023-03-01T01:57:45;-0.52;73.17
72277;SHT30;61204;49.980;8.358;2023-03-01T02:00:23;-0.49;72.82
72277;SHT30;61204;49.980;8.358;2023-03-01T02:02:55;-0.50;72.76
72277;SHT30;61204;49.980;8.358;2023-03-01T02:05:45;-0.53;73.18
72277;SHT30;61204;49.980;8.358;2023-03-01T02:08:18;-0.53;73.03
72277;SHT30;61204;49.980;8.358;2023-03-01T02:10:46;-0.52;73.79
72277;SHT30;61204;49.980;8.358;2023-03-01T02:13:14;-0.42;72.78
72277;SHT30;61204;49.980;8.358;2023-03-01T02:15:41;-0.37;72.77
72277;SHT30;61204;49.980;8.358;2023-03-01T02:18:12;-0.42;72.85
72277;SHT30;61204;49.980;8.358;2023-03-01T02:23:32;-0.37;72.70
72277;SHT30;61204;49.980;8.358;2023-03-01T02:26:50;-0.44;72.98
72277;SHT30;61204;49.980;8.358;2023-03-01T02:28:58;-0.52;73.29
72277;SHT30;61204;49.980;8.358;2023-03-01T02:31:24;-0.36;72.77
72277;SHT30;61204;49.980;8.358;2023-03-01T02:34:16;-0.33;72.76
72277;SHT30;61204;49.980;8.358;2023-03-01T02:36:52;-0.34;73.07
72277;SHT30;61204;49.980;8.358;2023-03-01T02:39:28;-0.33;72.78
72277;SHT30;61204;49.980;8.358;2023-03-01T02:42:02;-0.30;72.68
72277;SHT30;61204;49.980;8.358;2023-03-01T02:44:29;-0.28;72.56
72277;SHT30;61204;49.980;8.358;2023-03-01T02:47:02;-0.25;72.42
72277;SHT30;61204;49.980;8.358;2023-03-01T02:49:31;-0.32;72.85
72277;SHT30;61204;49.980;8.358;2023-03-01T02:52:33;-0.39;73.28
72277;SHT30;61204;49.980;8.358;2023-03-01T02:55:12;-0.40;73.25
72277;SHT30;61204;49.980;8.358;2023-03-01T02:57:43;-0.36;73.64
72277;SHT30;61204;49.980;8.358;2023-03-01T03:00:19;-0.32;73.00
72277;SHT30;61204;49.980;8.358;2023-03-01T03:02:50;-0.34;73.00
72277;SHT30;61204;49.980;8.358;2023-03-01T03:05:22;-0.33;73.03
72277;SHT30;61204;49.980;8.358;2023-03-01T03:07:51;-0.32;73.27
72277;SHT30;61204;49.980;8.358;2023-03-01T03:10:25;-0.26;72.81
72277;SHT30;61204;49.980;8.358;2023-03-01T03:12:55;-0.32;72.95
72277;SHT30;61204;49.980;8.358;2023-03-01T03:15:32;-0.33;73.18
72277;SHT30;61204;49.980;8.358;2023-03-01T03:18:02;-0.34;73.19
72277;SHT30;61204;49.980;8.358;2023-03-01T03:20:29;-0.26;73.17
72277;SHT30;61204;49.980;8.358;2023-03-01T03:22:56;-0.29;72.92
72277;SHT30;61204;49.980;8.358;2023-03-01T03:25:24;-0.25;72.69
72277;SHT30;61204;49.980;8.358;2023-03-01T03:27:52;-0.23;72.56
72277;SHT30;61204;49.980;8.358;2023-03-01T03:30:23;-0.23;72.79
72277;SHT30;61204;49.980;8.358;2023-03-01T03:32:57;-0.23;72.58
72277;SHT30;61204;49.980;8.358;2023-03-01T03:35:29;-0.19;72.39
72277;SHT30;61204;49.980;8.358;2023-03-01T03:37:58;-0.14;71.99
72277;SHT30;61204;49.980;8.358;2023-03-01T03:40:36;-0.11;71.89
72277;SHT30;61204;49.980;8.358;2023-03-01T03:43:04;-0.16;72.17
72277;SHT30;61204;49.980;8.358;2023-03-01T03:45:35;-0.12;71.97
72277;SHT30;61204;49.980;8.358;2023-03-01T03:48:03;-0.08;71.88
72277;SHT30;61204;49.980;8.358;2023-03-01T03:50:30;-0.12;71.83
72277;SHT30;61204;49.980;8.358;2023-03-01T03:52:55;-0.12;71.88
72277;SHT30;61204;49.980;8.358;2023-03-01T03:55:21;-0.11;71.68
72277;SHT30;61204;49.980;8.358;2023-03-01T03:57:47;-0.14;71.65
72277;SHT30;61204;49.980;8.358;2023-03-01T04:00:21;-0.15;71.88
72277;SHT30;61204;49.980;8.358;2023-03-01T04:02:50;-0.19;72.00
72277;SHT30;61204;49.980;8.358;2023-03-01T04:05:18;-0.22;71.91
72277;SHT30;61204;49.980;8.358;2023-03-01T04:07:44;-0.18;71.83
72277;SHT30;61204;49.980;8.358;2023-03-01T04:10:15;-0.21;71.82
72277;SHT30;61204;49.980;8.358;2023-03-01T04:12:42;-0.25;72.00
72277;SHT30;61204;49.980;8.358;2023-03-01T04:15:11;-0.26;72.14
72277;SHT30;61204;49.980;8.358;2023-03-01T04:20:16;-0.28;72.01
72277;SHT30;61204;49.980;8.358;2023-03-01T04:22:49;-0.21;71.89
72277;SHT30;61204;49.980;8.358;2023-03-01T04:25:17;-0.21;71.88
72277;SHT30;61204;49.980;8.358;2023-03-01T04:27:43;-0.25;72.02
72277;SHT30;61204;49.980;8.358;2023-03-01T04:30:10;-0.25;72.02
72277;SHT30;61204;49.980;8.358;2023-03-01T04:32:37;-0.34;72.41
72277;SHT30;61204;49.980;8.358;2023-03-01T04:35:02;-0.28;72.01
72277;SHT30;61204;49.980;8.358;2023-03-01T04:37:28;-0.33;72.05
72277;SHT30;61204;49.980;8.358;2023-03-01T04:39:54;-0.37;72.42
72277;SHT30;61204;49.980;8.358;2023-03-01T04:42:20;-0.37;72.41
72277;SHT30;61204;49.980;8.358;2023-03-01T04:44:45;-0.39;72.49
72277;SHT30;61204;49.980;8.358;2023-03-01T04:47:11;-0.39;72.59
72277;SHT30;61204;49.980;8.358;2023-03-01T04:49:37;-0.37;72.41
72277;SHT30;61204;49.980;8.358;2023-03-01T04:52:04;-0.36;72.34
72277;SHT30;61204;49.980;8.358;2023-03-01T04:54:34;-0.37;72.39
72277;SHT30;61204;49.980;8.358;2023-03-01T04:57:01;-0.42;72.23
72277;SHT30;61204;49.980;8.358;2023-03-01T04:59:28;-0.44;72.59
72277;SHT30;61204;49.980;8.358;2023-03-01T05:01:55;-0.57;72.91
72277;SHT30;61204;49.980;8.358;2023-03-01T05:04:22;-0.56;73.05
72277;SHT30;61204;49.980;8.358;2023-03-01T05:06:49;-0.59;73.44
72277;SHT30;61204;49.980;8.358;2023-03-01T05:09:15;-0.67;73.48
72277;SHT30;61204;49.980;8.358;2023-03-01T05:11:41;-0.64;73.36
72277;SHT30;61204;49.980;8.358;2023-03-01T05:14:08;-0.61;73.43
72277;SHT30;61204;49.980;8.358;2023-03-01T05:16:35;-0.60;73.57
72277;SHT30;61204;49.980;8.358;2023-03-01T05:19:01;-0.57;73.46
72277;SHT30;61204;49.980;8.358;2023-03-01T05:21:39;-0.61;73.50
72277;SHT30;61204;49.980;8.358;2023-03-01T05:24:24;-0.61;73.78
72277;SHT30;61204;49.980;8.358;2023-03-01T05:26:50;-0.56;73.89
72277;SHT30;61204;49.980;8.358;2023-03-01T05:29:19;-0.52;73.58
72277;SHT30;61204;49.980;8.358;2023-03-01T05:32:08;-0.59;73.54
72277;SHT30;61204;49.980;8.358;2023-03-01T05:34:35;-0.57;73.44
72277;SHT30;61204;49.980;8.358;2023-03-01T05:37:02;-0.57;73.59
72277;SHT30;61204;49.980;8.358;2023-03-01T05:39:29;-0.54;73.47
72277;SHT30;61204;49.980;8.358;2023-03-01T05:41:56;-0.54;73.22
72277;SHT30;61204;49.980;8.358;2023-03-01T05:44:24;-0.49;72.77
72277;SHT30;61204;49.980;8.358;2023-03-01T05:46:51;-0.52;72.85
72277;SHT30;61204;49.980;8.358;2023-03-01T05:49:17;-0.52;72.93
72277;SHT30;61204;49.980;8.358;2023-03-01T05:51:48;-0.48;72.74
72277;SHT30;61204;49.980;8.358;2023-03-01T05:54:19;-0.49;72.94
72277;SHT30;61204;49.980;8.358;2023-03-01T05:56:47;-0.44;72.62
72277;SHT30;61204;49.980;8.358;2023-03-01T05:59:12;-0.43;72.56
72277;SHT30;61204;49.980;8.358;2023-03-01T06:01:40;-0.36;72.06
72277;SHT30;61204;49.980;8.358;2023-03-01T06:04:05;-0.33;72.02
72277;SHT30;61204;49.980;8.358;2023-03-01T06:06:35;-0.33;72.02
72277;SHT30;61204;49.980;8.358;2023-03-01T06:09:03;-0.26;71.54
72277;SHT30;61204;49.980;8.358;2023-03-01T06:11:31;-0.22;71.26
72277;SHT30;61204;49.980;8.358;2023-03-01T06:14:01;-0.23;71.29
72277;SHT30;61204;49.980;8.358;2023-03-01T06:16:27;-0.16;71.02
72277;SHT30;61204;49.980;8.358;2023-03-01T06:18:53;-0.08;70.77
72277;SHT30;61204;49.980;8.358;2023-03-01T06:21:18;-0.08;70.86
72277;SHT30;61204;49.980;8.358;2023-03-01T06:23:44;-0.06;70.81
72277;SHT30;61204;49.980;8.358;2023-03-01T06:26:09;0.02;70.46
72277;SHT30;61204;49.980;8.358;2023-03-01T06:28:35;0.13;70.26
72277;SHT30;61204;49.980;8.358;2023-03-01T06:31:01;0.23;69.81
72277;SHT30;61204;49.980;8.358;2023-03-01T06:33:27;0.26;69.76
72277;SHT30;61204;49.980;8.358;2023-03-01T06:35:55;0.34;70.26
72277;SHT30;61204;49.980;8.358;2023-03-01T06:38:23;0.27;69.67
72277;SHT30;61204;49.980;8.358;2023-03-01T06:40:54;0.24;69.92
72277;SHT30;61204;49.980;8.358;2023-03-01T06:43:22;0.24;70.01
72277;SHT30;61204;49.980;8.358;2023-03-01T06:45:48;0.26;70.01
72277;SHT30;61204;49.980;8.358;2023-03-01T06:48:14;0.26;70.00
72277;SHT30;61204;49.980;8.358;2023-03-01T06:50:40;0.22;70.15
72277;SHT30;61204;49.980;8.358;2023-03-01T06:53:05;0.26;69.92
72277;SHT30;61204;49.980;8.358;2023-03-01T06:55:31;0.24;69.83
72277;SHT30;61204;49.980;8.358;2023-03-01T06:58:01;0.24;69.66
72277;SHT30;61204;49.980;8.358;2023-03-01T07:00:28;0.27;69.18
72277;SHT30;61204;49.980;8.358;2023-03-01T07:02:54;0.29;69.50
72277;SHT30;61204;49.980;8.358;2023-03-01T07:05:23;0.30;69.26
72277;SHT30;61204;49.980;8.358;2023-03-01T07:07:48;0.30;68.95
72277;SHT30;61204;49.980;8.358;2023-03-01T07:10:14;0.31;68.93
72277;SHT30;61204;49.980;8.358;2023-03-01T07:12:39;0.36;69.03
72277;SHT30;61204;49.980;8.358;2023-03-01T07:15:08;0.43;69.34
72277;SHT30;61204;49.980;8.358;2023-03-01T07:17:36;0.53;68.59
72277;SHT30;61204;49.980;8.358;2023-03-01T07:20:02;0.62;68.39
72277;SHT30;61204;49.980;8.358;2023-03-01T07:22:28;0.78;68.18
72277;SHT30;61204;49.980;8.358;2023-03-01T07:24:54;0.97;67.57
72277;SHT30;61204;49.980;8.358;2023-03-01T07:27:19;1.16;67.09
72277;SHT30;61204;49.980;8.358;2023-03-01T07:29:44;1.31;66.66
72277;SHT30;61204;49.980;8.358;2023-03-01T07:32:12;1.48;65.88
72277;SHT30;61204;49.980;8.358;2023-03-01T07:34:37;1.69;65.75
72277;SHT30;61204;49.980;8.358;2023-03-01T07:37:03;1.87;65.06
72277;SHT30;61204;49.980;8.358;2023-03-01T07:39:28;1.98;64.62
72277;SHT30;61204;49.980;8.358;2023-03-01T07:41:54;2.34;63.86
72277;SHT30;61204;49.980;8.358;2023-03-01T07:44:19;2.59;63.62
72277;SHT30;61204;49.980;8.358;2023-03-01T07:46:45;2.85;62.91
72277;SHT30;61204;49.980;8.358;2023-03-01T07:49:10;2.92;61.22
72277;SHT30;61204;49.980;8.358;2023-03-01T07:51:38;3.22;60.89
72277;SHT30;61204;49.980;8.358;2023-03-01T07:54:04;3.40;60.32
72277;SHT30;61204;49.980;8.358;2023-03-01T07:56:29;3.83;59.30
72277;SHT30;61204;49.980;8.358;2023-03-01T07:58:55;3.82;60.32
72277;SHT30;61204;49.980;8.358;2023-03-01T08:01:24;4.25;58.18
72277;SHT30;61204;49.980;8.358;2023-03-01T08:03:49;4.41;58.09
72277;SHT30;61204;49.980;8.358;2023-03-01T08:06:16;4.61;56.66
72277;SHT30;61204;49.980;8.358;2023-03-01T08:08:42;4.29;57.02
72277;SHT30;61204;49.980;8.358;2023-03-01T08:11:11;4.71;57.22
72277;SHT30;61204;49.980;8.358;2023-03-01T08:13:38;4.92;56.34
72277;SHT30;61204;49.980;8.358;2023-03-01T08:16:06;5.20;54.92
72277;SHT30;61204;49.980;8.358;2023-03-01T08:18:41;5.10;54.78
72277;SHT30;61204;49.980;8.358;2023-03-01T08:21:13;5.19;54.78
72277;SHT30;61204;49.980;8.358;2023-03-01T08:23:40;4.95;54.84
72277;SHT30;61204;49.980;8.358;2023-03-01T08:26:14;5.00;54.60
72277;SHT30;61204;49.980;8.358;2023-03-01T08:28:44;5.13;53.95
72277;SHT30;61204;49.980;8.358;2023-03-01T08:31:21;5.00;54.94
72277;SHT30;61204;49.980;8.358;2023-03-01T08:33:50;5.12;54.34
72277;SHT30;61204;49.980;8.358;2023-03-01T08:36:21;5.69;53.16
72277;SHT30;61204;49.980;8.358;2023-03-01T08:38:48;6.24;51.78
72277;SHT30;61204;49.980;8.358;2023-03-01T08:41:14;6.53;51.21
72277;SHT30;61204;49.980;8.358;2023-03-01T08:43:40;6.20;51.18
72277;SHT30;61204;49.980;8.358;2023-03-01T08:46:05;6.55;51.15
72277;SHT30;61204;49.980;8.358;2023-03-01T08:48:31;7.13;49.49
72277;SHT30;61204;49.980;8.358;2023-03-01T08:50:56;6.92;49.13
72277;SHT30;61204;49.980;8.358;2023-03-01T08:53:22;6.86;48.62
72277;SHT30;61204;49.980;8.358;2023-03-01T08:55:48;7.15;48.66
72277;SHT30;61204;49.980;8.358;2023-03-01T08:58:13;7.38;48.16
72277;SHT30;61204;49.980;8.358;2023-03-01T09:00:39;6.82;48.06
72277;SHT30;61204;49.980;8.358;2023-03-01T09:03:06;7.10;47.62
72277;SHT30;61204;49.980;8.358;2023-03-01T09:05:33;6.94;48.93
72277;SHT30;61204;49.980;8.358;2023-03-01T09:07:59;7.28;48.10
72277;SHT30;61204;49.980;8.358;2023-03-01T09:10:24;7.90;45.84
72277;SHT30;61204;49.980;8.358;2023-03-01T09:12:51;7.77;46.38
72277;SHT30;61204;49.980;8.358;2023-03-01T09:15:17;7.87;45.23
72277;SHT30;61204;49.980;8.358;2023-03-01T09:17:42;7.89;45.81
72277;SHT30;61204;49.980;8.358;2023-03-01T09:20:08;8.72;44.22
72277;SHT30;61204;49.980;8.358;2023-03-01T09:22:36;8.55;43.49
72277;SHT30;61204;49.980;8.358;2023-03-01T09:25:04;8.86;42.87
72277;SHT30;61204;49.980;8.358;2023-03-01T09:27:30;8.80;44.14
72277;SHT30;61204;49.980;8.358;2023-03-01T09:29:55;8.93;43.08
72277;SHT30;61204;49.980;8.358;2023-03-01T09:32:23;9.52;42.20
72277;SHT30;61204;49.980;8.358;2023-03-01T09:34:49;9.34;42.48
72277;SHT30;61204;49.980;8.358;2023-03-01T09:37:29;8.59;44.58
72277;SHT30;61204;49.980;8.358;2023-03-01T09:39:54;9.24;42.58
72277;SHT30;61204;49.980;8.358;2023-03-01T09:42:20;9.82;41.41
72277;SHT30;61204;49.980;8.358;2023-03-01T09:44:56;8.46;43.45
72277;SHT30;61204;49.980;8.358;2023-03-01T09:47:31;8.65;43.88
72277;SHT30;61204;49.980;8.358;2023-03-01T09:55:19;9.27;41.23
72277;SHT30;61204;49.980;8.358;2023-03-01T10:00:43;9.45;41.46
72277;SHT30;61204;49.980;8.358;2023-03-01T10:03:33;9.72;41.60
72277;SHT30;61204;49.980;8.358;2023-03-01T10:09:08;8.94;42.74
72277;SHT30;61204;49.980;8.358;2023-03-01T10:11:42;9.73;41.11
72277;SHT30;61204;49.980;8.358;2023-03-01T10:17:01;9.66;41.71
72277;SHT30;61204;49.980;8.358;2023-03-01T10:19:43;10.05;40.13
72277;SHT30;61204;49.980;8.358;2023-03-01T10:22:18;10.38;40.19
72277;SHT30;61204;49.980;8.358;2023-03-01T10:24:51;10.18;40.82
72277;SHT30;61204;49.980;8.358;2023-03-01T10:27:23;10.76;39.29
72277;SHT30;61204;49.980;8.358;2023-03-01T10:30:00;11.76;37.57
72277;SHT30;61204;49.980;8.358;2023-03-01T10:32:37;11.46;37.90
72277;SHT30;61204;49.980;8.358;2023-03-01T10:35:22;11.34;37.38
72277;SHT30;61204;49.980;8.358;2023-03-01T10:38:18;10.90;39.11
72277;SHT30;61204;49.980;8.358;2023-03-01T10:40:56;10.03;40.39
72277;SHT30;61204;49.980;8.358;2023-03-01T10:43:49;10.35;40.39
72277;SHT30;61204;49.980;8.358;2023-03-01T10:46:31;11.56;38.39
72277;SHT30;61204;49.980;8.358;2023-03-01T10:49:17;10.66;39.09
72277;SHT30;61204;49.980;8.358;2023-03-01T10:51:52;10.53;39.74
72277;SHT30;61204;49.980;8.358;2023-03-01T10:54:26;10.55;39.00
72277;SHT30;61204;49.980;8.358;2023-03-01T10:57:04;9.63;40.99
72277;SHT30;61204;49.980;8.358;2023-03-01T10:59:40;11.00;39.47
72277;SHT30;61204;49.980;8.358;2023-03-01T11:02:28;11.93;37.86
72277;SHT30;61204;49.980;8.358;2023-03-01T11:05:28;11.08;37.96
72277;SHT30;61204;49.980;8.358;2023-03-01T11:07:59;11.87;37.27
72277;SHT30;61204;49.980;8.358;2023-03-01T11:10:31;12.03;37.03
72277;SHT30;61204;49.980;8.358;2023-03-01T11:16:03;11.10;38.37
72277;SHT30;61204;49.980;8.358;2023-03-01T11:18:32;11.32;37.63
72277;SHT30;61204;49.980;8.358;2023-03-01T11:20:59;10.99;38.88
72277;SHT30;61204;49.980;8.358;2023-03-01T11:23:29;11.07;38.14
72277;SHT30;61204;49.980;8.358;2023-03-01T11:26:01;11.36;37.27
72277;SHT30;61204;49.980;8.358;2023-03-01T11:28:29;12.52;36.15
72277;SHT30;61204;49.980;8.358;2023-03-01T11:31:10;12.58;36.57
72277;SHT30;61204;49.980;8.358;2023-03-01T11:33:48;13.56;34.52
72277;SHT30;61204;49.980;8.358;2023-03-01T11:36:40;13.38;35.05
72277;SHT30;61204;49.980;8.358;2023-03-01T11:39:38;11.95;36.72
72277;SHT30;61204;49.980;8.358;2023-03-01T11:42:17;11.54;36.74
72277;SHT30;61204;49.980;8.358;2023-03-01T11:44:54;11.27;37.53
72277;SHT30;61204;49.980;8.358;2023-03-01T11:53:14;12.28;36.03
72277;SHT30;61204;49.980;8.358;2023-03-01T11:58:42;12.94;35.67
72277;SHT30;61204;49.980;8.358;2023-03-01T12:06:56;12.50;35.43
72277;SHT30;61204;49.980;8.358;2023-03-01T12:09:41;12.17;36.67
72277;SHT30;61204;49.980;8.358;2023-03-01T12:24:13;13.73;33.40
72277;SHT30;61204;49.980;8.358;2023-03-01T12:45:58;15.67;30.47
72277;SHT30;61204;49.980;8.358;2023-03-01T12:51:32;14.48;31.28
72277;SHT30;61204;49.980;8.358;2023-03-01T12:54:07;14.72;31.42
72277;SHT30;61204;49.980;8.358;2023-03-01T12:56:40;14.68;31.28
72277;SHT30;61204;49.980;8.358;2023-03-01T12:59:34;14.28;31.10
72277;SHT30;61204;49.980;8.358;2023-03-01T13:07:58;13.52;33.10
72277;SHT30;61204;49.980;8.358;2023-03-01T13:10:42;13.69;32.41
72277;SHT30;61204;49.980;8.358;2023-03-01T13:13:14;13.37;33.38
72277;SHT30;61204;49.980;8.358;2023-03-01T13:15:48;14.73;31.52
72277;SHT30;61204;49.980;8.358;2023-03-01T13:23:24;13.82;31.57
72277;SHT30;61204;49.980;8.358;2023-03-01T13:38:58;13.90;31.50
72277;SHT30;61204;49.980;8.358;2023-03-01T13:46:58;14.66;30.62
72277;SHT30;61204;49.980;8.358;2023-03-01T13:49:56;13.06;32.71
72277;SHT30;61204;49.980;8.358;2023-03-01T13:52:44;12.70;33.41
72277;SHT30;61204;49.980;8.358;2023-03-01T13:58:33;12.59;33.21
72277;SHT30;61204;49.980;8.358;2023-03-01T14:01:27;11.89;34.23
72277;SHT30;61204;49.980;8.358;2023-03-01T14:03:57;11.89;34.33
72277;SHT30;61204;49.980;8.358;2023-03-01T14:06:26;12.80;32.93
72277;SHT30;61204;49.980;8.358;2023-03-01T14:19:57;11.65;35.01
72277;SHT30;61204;49.980;8.358;2023-03-01T14:22:29;12.20;33.49
72277;SHT30;61204;49.980;8.358;2023-03-01T14:25:06;11.59;34.78
72277;SHT30;61204;49.980;8.358;2023-03-01T14:27:44;11.77;34.74
72277;SHT30;61204;49.980;8.358;2023-03-01T14:30:15;11.34;35.77
72277;SHT30;61204;49.980;8.358;2023-03-01T14:32:56;11.04;36.06
72277;SHT30;61204;49.980;8.358;2023-03-01T14:35:33;11.08;36.41
72277;SHT30;61204;49.980;8.358;2023-03-01T14:38:00;11.43;35.61
72277;SHT30;61204;49.980;8.358;2023-03-01T14:40:35;11.66;35.59
72277;SHT30;61204;49.980;8.358;2023-03-01T14:43:10;12.03;34.85
72277;SHT30;61204;49.980;8.358;2023-03-01T14:45:37;11.80;35.24
72277;SHT30;61204;49.980;8.358;2023-03-01T14:48:06;12.30;34.77
72277;SHT30;61204;49.980;8.358;2023-03-01T14:50:40;12.55;34.05
72277;SHT30;61204;49.980;8.358;2023-03-01T14:53:18;12.99;33.43
72277;SHT30;61204;49.980;8.358;2023-03-01T14:55:51;13.08;33.51
72277;SHT30;61204;49.980;8.358;2023-03-01T14:58:22;12.07;34.72
72277;SHT30;61204;49.980;8.358;2023-03-01T15:00:55;12.07;34.81
72277;SHT30;61204;49.980;8.358;2023-03-01T15:03:41;11.07;36.39
72277;SHT30;61204;49.980;8.358;2023-03-01T15:06:18;11.45;35.86
72277;SHT30;61204;49.980;8.358;2023-03-01T15:08:48;11.58;35.76
72277;SHT30;61204;49.980;8.358;2023-03-01T15:11:30;11.95;35.20
72277;SHT30;61204;49.980;8.358;2023-03-01T15:13:58;11.77;35.75
72277;SHT30;61204;49.980;8.358;2023-03-01T15:16:31;11.61;35.80
72277;SHT30;61204;49.980;8.358;2023-03-01T15:19:04;11.70;35.64
72277;SHT30;61204;49.980;8.358;2023-03-01T15:21:36;10.97;36.76
72277;SHT30;61204;49.980;8.358;2023-03-01T15:26:49;11.30;36.34
72277;SHT30;61204;49.980;8.358;2023-03-01T15:29:24;10.86;37.13
72277;SHT30;61204;49.980;8.358;2023-03-01T15:34:51;10.46;37.62
72277;SHT30;61204;49.980;8.358;2023-03-01T15:37:47;10.22;38.13
72277;SHT30;61204;49.980;8.358;2023-03-01T15:40:32;9.91;38.52
72277;SHT30;61204;49.980;8.358;2023-03-01T15:43:06;10.13;38.31
72277;SHT30;61204;49.980;8.358;2023-03-01T15:46:20;9.83;38.78
72277;SHT30;61204;49.980;8.358;2023-03-01T15:48:59;9.63;38.90
72277;SHT30;61204;49.980;8.358;2023-03-01T15:51:29;9.98;38.47
72277;SHT30;61204;49.980;8.358;2023-03-01T15:54:02;9.90;38.33
72277;SHT30;61204;49.980;8.358;2023-03-01T15:56:31;9.72;38.71
72277;SHT30;61204;49.980;8.358;2023-03-01T15:59:00;9.58;39.24
72277;SHT30;61204;49.980;8.358;2023-03-01T16:01:29;9.76;39.05
72277;SHT30;61204;49.980;8.358;2023-03-01T16:03:55;9.30;39.72
72277;SHT30;61204;49.980;8.358;2023-03-01T16:06:23;9.11;40.41
72277;SHT30;61204;49.980;8.358;2023-03-01T16:08:48;8.87;40.64
72277;SHT30;61204;49.980;8.358;2023-03-01T16:11:17;8.70;41.06
72277;SHT30;61204;49.980;8.358;2023-03-01T16:13:45;8.80;41.41
72277;SHT30;61204;49.980;8.358;2023-03-01T16:16:12;9.15;41.30
72277;SHT30;61204;49.980;8.358;2023-03-01T16:18:45;8.90;41.79
72277;SHT30;61204;49.980;8.358;2023-03-01T16:21:20;8.73;42.11
72277;SHT30;61204;49.980;8.358;2023-03-01T16:23:47;8.59;42.37
72277;SHT30;61204;49.980;8.358;2023-03-01T16:26:12;8.18;42.93
72277;SHT30;61204;49.980;8.358;2023-03-01T16:28:40;8.00;43.91
72277;SHT30;61204;49.980;8.358;2023-03-01T16:31:06;7.90;44.18
72277;SHT30;61204;49.980;8.358;2023-03-01T16:33:32;7.69;44.82
72277;SHT30;61204;49.980;8.358;2023-03-01T16:35:59;7.75;45.12
72277;SHT30;61204;49.980;8.358;2023-03-01T16:38:27;7.58;44.90
72277;SHT30;61204;49.980;8.358;2023-03-01T16:40:53;7.47;45.32
72277;SHT30;61204;49.980;8.358;2023-03-01T16:43:19;7.41;45.44
72277;SHT30;61204;49.980;8.358;2023-03-01T16:45:44;7.32;45.83
72277;SHT30;61204;49.980;8.358;2023-03-01T16:48:11;7.15;46.08
72277;SHT30;61204;49.980;8.358;2023-03-01T16:50:37;7.04;46.45
72277;SHT30;61204;49.980;8.358;2023-03-01T16:53:02;6.94;46.47
72277;SHT30;61204;49.980;8.358;2023-03-01T16:55:28;6.90;46.55
72277;SHT30;61204;49.980;8.358;2023-03-01T16:57:53;6.82;46.77
72277;SHT30;61204;49.980;8.358;2023-03-01T17:00:20;6.76;46.72
72277;SHT30;61204;49.980;8.358;2023-03-01T17:02:46;6.66;46.45
72277;SHT30;61204;49.980;8.358;2023-03-01T17:05:11;6.53;46.25
72277;SHT30;61204;49.980;8.358;2023-03-01T17:07:38;6.59;46.18
72277;SHT30;61204;49.980;8.358;2023-03-01T17:10:06;6.45;46.26
72277;SHT30;61204;49.980;8.358;2023-03-01T17:12:34;6.38;46.49
72277;SHT30;61204;49.980;8.358;2023-03-01T17:15:00;6.25;46.85
72277;SHT30;61204;49.980;8.358;2023-03-01T17:17:26;6.20;47.03
72277;SHT30;61204;49.980;8.358;2023-03-01T17:19:52;6.11;47.19
72277;SHT30;61204;49.980;8.358;2023-03-01T17:22:18;6.10;46.90
72277;SHT30;61204;49.980;8.358;2023-03-01T17:24:44;6.02;47.18
72277;SHT30;61204;49.980;8.358;2023-03-01T17:27:11;5.99;47.62
72277;SHT30;61204;49.980;8.358;2023-03-01T17:29:38;5.87;47.81
72277;SHT30;61204;49.980;8.358;2023-03-01T17:32:05;5.80;48.10
72277;SHT30;61204;49.980;8.358;2023-03-01T17:34:33;5.73;47.98
72277;SHT30;61204;49.980;8.358;2023-03-01T17:36:59;5.68;47.83
72277;SHT30;61204;49.980;8.358;2023-03-01T17:39:27;5.65;47.96
72277;SHT30;61204;49.980;8.358;2023-03-01T17:42:00;5.59;47.81
72277;SHT30;61204;49.980;8.358;2023-03-01T17:44:34;5.56;48.03
72277;SHT30;61204;49.980;8.358;2023-03-01T17:47:01;5.55;48.07
72277;SHT30;61204;49.980;8.358;2023-03-01T17:49:28;5.48;47.99
72277;SHT30;61204;49.980;8.358;2023-03-01T17:51:54;5.42;48.74
72277;SHT30;61204;49.980;8.358;2023-03-01T17:54:19;5.41;48.61
72277;SHT30;61204;49.980;8.358;2023-03-01T17:56:45;5.35;48.52
72277;SHT30;61204;49.980;8.358;2023-03-01T17:59:13;5.32;48.63
72277;SHT30;61204;49.980;8.358;2023-03-01T18:01:42;5.26;48.76
72277;SHT30;61204;49.980;8.358;2023-03-01T18:04:08;5.19;49.13